sensor_id;sensor_type;location;lat;lon;timestamp;P1;durP1;ratioP1;P2;durP2;ratioP2
44197;SDS011;30157;55.512;37.764;2023-05-07T00:00:04;7.70;;;4.10;;
44197;SDS011;30157;55.512;37.764;2023-05-07T00:02:35;9.93;;;4.47;;
44197;SDS011;30157;55.512;37.764;2023-05-07T00:05:03;8.88;;;4.72;;
44197;SDS011;30157;55.512;37.764;2023-05-07T00:07:31;7.60;;;4.07;;
44197;SDS011;30157;55.512;37.764;2023-05-07T00:09:57;5.60;;;3.50;;
44197;SDS011;30157;55.512;37.764;2023-05-07T00:12:22;7.90;;;4.30;;
44197;SDS011;30157;55.512;37.764;2023-05-07T00:14:48;8.48;;;4.40;;
44197;SDS011;30157;55.512;37.764;2023-05-07T00:17:14;7.50;;;4.30;;
44197;SDS011;30157;55.512;37.764;2023-05-07T00:19:39;7.45;;;4.43;;
44197;SDS011;30157;55.512;37.764;2023-05-07T00:22:05;9.13;;;3.92;;
44197;SDS011;30157;55.512;37.764;2023-05-07T00:24:31;6.70;;;4.13;;
44197;SDS011;30157;55.512;37.764;2023-05-07T00:26:56;8.35;;;4.20;;
44197;SDS011;30157;55.512;37.764;2023-05-07T00:29:23;8.35;;;4.47;;
44197;SDS011;30157;55.512;37.764;2023-05-07T00:31:49;7.63;;;4.10;;
44197;SDS011;30157;55.512;37.764;2023-05-07T00:34:15;8.60;;;4.32;;
44197;SDS011;30157;55.512;37.764;2023-05-07T00:36:41;7.90;;;4.85;;
44197;SDS011;30157;55.512;37.764;2023-05-07T00:39:07;6.00;;;3.80;;
44197;SDS011;30157;55.512;37.764;2023-05-07T00:41:33;7.78;;;4.25;;
44197;SDS011;30157;55.512;37.764;2023-05-07T00:43:59;9.55;;;4.35;;
44197;SDS011;30157;55.512;37.764;2023-05-07T00:46:24;9.35;;;4.70;;
44197;SDS011;30157;55.512;37.764;2023-05-07T00:48:51;9.18;;;4.95;;
44197;SDS011;30157;55.512;37.764;2023-05-07T00:51:17;5.75;;;4.30;;
44197;SDS011;30157;55.512;37.764;2023-05-07T00:53:43;9.13;;;4.50;;
44197;SDS011;30157;55.512;37.764;2023-05-07T00:56:10;7.75;;;5.07;;
44197;SDS011;30157;55.512;37.764;2023-05-07T00:58:37;9.27;;;4.93;;
44197;SDS011;30157;55.512;37.764;2023-05-07T01:01:03;7.53;;;4.53;;
44197;SDS011;30157;55.512;37.764;2023-05-07T01:03:29;10.88;;;5.20;;
44197;SDS011;30157;55.512;37.764;2023-05-07T01:05:55;6.75;;;4.32;;
44197;SDS011;30157;55.512;37.764;2023-05-07T01:08:23;8.20;;;4.13;;
44197;SDS011;30157;55.512;37.764;2023-05-07T01:10:51;5.82;;;4.10;;
44197;SDS011;30157;55.512;37.764;2023-05-07T01:13:18;8.32;;;5.05;;
44197;SDS011;30157;55.512;37.764;2023-05-07T01:15:46;17.48;;;9.15;;
44197;SDS011;30157;55.512;37.764;2023-05-07T01:18:13;18.90;;;9.88;;
44197;SDS011;30157;55.512;37.764;2023-05-07T01:20:39;15.77;;;8.65;;
44197;SDS011;30157;55.512;37.764;2023-05-07T01:23:05;16.75;;;9.90;;
44197;SDS011;30157;55.512;37.764;2023-05-07T01:25:32;24.08;;;12.27;;
44197;SDS011;30157;55.512;37.764;2023-05-07T01:27:59;15.70;;;8.63;;
44197;SDS011;30157;55.512;37.764;2023-05-07T01:30:29;11.88;;;6.20;;
44197;SDS011;30157;55.512;37.764;2023-05-07T01:33:03;10.30;;;5.85;;
44197;SDS011;30157;55.512;37.764;2023-05-07T01:35:40;12.45;;;5.80;;
44197;SDS011;30157;55.512;37.764;2023-05-07T01:38:09;9.95;;;5.47;;
44197;SDS011;30157;55.512;37.764;2023-05-07T01:40:35;7.95;;;5.00;;
44197;SDS011;30157;55.512;37.764;2023-05-07T01:43:04;10.52;;;5.45;;
44197;SDS011;30157;55.512;37.764;2023-05-07T01:45:32;10.65;;;5.68;;
44197;SDS011;30157;55.512;37.764;2023-05-07T01:48:01;11.23;;;5.72;;
44197;SDS011;30157;55.512;37.764;2023-05-07T01:50:28;12.35;;;6.43;;
44197;SDS011;30157;55.512;37.764;2023-05-07T01:52:54;32.63;;;16.85;;
44197;SDS011;30157;55.512;37.764;2023-05-07T01:55:20;65.85;;;32.35;;
44197;SDS011;30157;55.512;37.764;2023-05-07T01:57:46;108.35;;;53.92;;
44197;SDS011;30157;55.512;37.764;2023-05-07T02:00:13;114.80;;;53.72;;
44197;SDS011;30157;55.512;37.764;2023-05-07T02:02:42;105.15;;;49.50;;
44197;SDS011;30157;55.512;37.764;2023-05-07T02:05:17;101.13;;;46.78;;
44197;SDS011;30157;55.512;37.764;2023-05-07T02:07:47;94.38;;;46.45;;
44197;SDS011;30157;55.512;37.764;2023-05-07T02:10:13;56.15;;;27.00;;
44197;SDS011;30157;55.512;37.764;2023-05-07T02:12:39;31.92;;;17.65;;
44197;SDS011;30157;55.512;37.764;2023-05-07T02:15:05;25.25;;;13.65;;
44197;SDS011;30157;55.512;37.764;2023-05-07T02:17:32;41.67;;;20.42;;
44197;SDS011;30157;55.512;37.764;2023-05-07T02:19:59;52.97;;;27.15;;
44197;SDS011;30157;55.512;37.764;2023-05-07T02:22:45;58.13;;;28.48;;
44197;SDS011;30157;55.512;37.764;2023-05-07T02:25:10;85.03;;;40.13;;
44197;SDS011;30157;55.512;37.764;2023-05-07T02:27:36;181.48;;;79.57;;
44197;SDS011;30157;55.512;37.764;2023-05-07T02:30:02;207.48;;;95.22;;
44197;SDS011;30157;55.512;37.764;2023-05-07T02:32:30;167.20;;;79.60;;
44197;SDS011;30157;55.512;37.764;2023-05-07T02:34:56;149.98;;;70.45;;
44197;SDS011;30157;55.512;37.764;2023-05-07T02:37:21;110.47;;;55.50;;
44197;SDS011;30157;55.512;37.764;2023-05-07T02:39:47;162.98;;;77.35;;
44197;SDS011;30157;55.512;37.764;2023-05-07T02:42:13;155.35;;;72.75;;
44197;SDS011;30157;55.512;37.764;2023-05-07T02:44:39;155.60;;;72.43;;
44197;SDS011;30157;55.512;37.764;2023-05-07T02:47:05;131.30;;;63.90;;
44197;SDS011;30157;55.512;37.764;2023-05-07T02:49:34;134.75;;;66.40;;
44197;SDS011;30157;55.512;37.764;2023-05-07T02:52:00;97.20;;;49.92;;
44197;SDS011;30157;55.512;37.764;2023-05-07T02:54:26;84.15;;;44.50;;
44197;SDS011;30157;55.512;37.764;2023-05-07T02:56:52;65.45;;;33.90;;
44197;SDS011;30157;55.512;37.764;2023-05-07T02:59:17;33.47;;;19.33;;
44197;SDS011;30157;55.512;37.764;2023-05-07T03:01:43;16.45;;;10.52;;
44197;SDS011;30157;55.512;37.764;2023-05-07T03:04:11;12.85;;;7.18;;
44197;SDS011;30157;55.512;37.764;2023-05-07T03:06:37;11.60;;;6.45;;
44197;SDS011;30157;55.512;37.764;2023-05-07T03:09:02;10.40;;;5.65;;
44197;SDS011;30157;55.512;37.764;2023-05-07T03:11:29;11.13;;;5.57;;
44197;SDS011;30157;55.512;37.764;2023-05-07T03:13:55;10.93;;;5.70;;
44197;SDS011;30157;55.512;37.764;2023-05-07T03:16:21;7.97;;;5.13;;
44197;SDS011;30157;55.512;37.764;2023-05-07T03:18:47;10.40;;;5.50;;
44197;SDS011;30157;55.512;37.764;2023-05-07T03:21:13;8.35;;;5.10;;
44197;SDS011;30157;55.512;37.764;2023-05-07T03:23:39;8.23;;;4.57;;
44197;SDS011;30157;55.512;37.764;2023-05-07T03:26:04;6.90;;;4.60;;
44197;SDS011;30157;55.512;37.764;2023-05-07T03:28:30;8.65;;;5.05;;
44197;SDS011;30157;55.512;37.764;2023-05-07T03:31:00;6.45;;;4.55;;
44197;SDS011;30157;55.512;37.764;2023-05-07T03:33:26;6.43;;;4.43;;
44197;SDS011;30157;55.512;37.764;2023-05-07T03:35:53;7.13;;;4.30;;
44197;SDS011;30157;55.512;37.764;2023-05-07T03:38:23;6.82;;;4.20;;
44197;SDS011;30157;55.512;37.764;2023-05-07T03:40:49;7.93;;;4.32;;
44197;SDS011;30157;55.512;37.764;2023-05-07T03:43:15;5.80;;;4.13;;
44197;SDS011;30157;55.512;37.764;2023-05-07T03:45:46;5.40;;;4.22;;
44197;SDS011;30157;55.512;37.764;2023-05-07T03:48:17;5.05;;;3.65;;
44197;SDS011;30157;55.512;37.764;2023-05-07T03:50:44;6.38;;;4.07;;
44197;SDS011;30157;55.512;37.764;2023-05-07T03:53:10;4.80;;;3.70;;
44197;SDS011;30157;55.512;37.764;2023-05-07T03:55:38;4.88;;;3.60;;
44197;SDS011;30157;55.512;37.764;2023-05-07T03:58:05;9.00;;;4.00;;
44197;SDS011;30157;55.512;37.764;2023-05-07T04:00:31;4.82;;;3.80;;
44197;SDS011;30157;55.512;37.764;2023-05-07T04:03:06;5.53;;;3.30;;
44197;SDS011;30157;55.512;37.764;2023-05-07T04:05:31;5.50;;;3.67;;
44197;SDS011;30157;55.512;37.764;2023-05-07T04:08:00;5.22;;;3.63;;
44197;SDS011;30157;55.512;37.764;2023-05-07T04:10:34;5.85;;;3.70;;
44197;SDS011;30157;55.512;37.764;2023-05-07T04:13:04;6.68;;;3.70;;
44197;SDS011;30157;55.512;37.764;2023-05-07T04:15:30;4.55;;;3.58;;
44197;SDS011;30157;55.512;37.764;2023-05-07T04:17:56;7.13;;;3.47;;
44197;SDS011;30157;55.512;37.764;2023-05-07T04:20:23;4.95;;;3.58;;
44197;SDS011;30157;55.512;37.764;2023-05-07T04:22:56;4.97;;;3.33;;
44197;SDS011;30157;55.512;37.764;2023-05-07T04:25:23;7.30;;;4.10;;
44197;SDS011;30157;55.512;37.764;2023-05-07T04:27:53;5.25;;;3.80;;
44197;SDS011;30157;55.512;37.764;2023-05-07T04:30:19;5.75;;;3.83;;
44197;SDS011;30157;55.512;37.764;2023-05-07T04:32:45;4.80;;;3.28;;
44197;SDS011;30157;55.512;37.764;2023-05-07T04:35:11;4.70;;;3.67;;
44197;SDS011;30157;55.512;37.764;2023-05-07T04:37:38;8.20;;;3.20;;
44197;SDS011;30157;55.512;37.764;2023-05-07T04:40:05;3.70;;;2.88;;
44197;SDS011;30157;55.512;37.764;2023-05-07T04:42:31;5.53;;;3.25;;
44197;SDS011;30157;55.512;37.764;2023-05-07T04:44:58;4.63;;;3.28;;
44197;SDS011;30157;55.512;37.764;2023-05-07T04:47:24;4.43;;;3.08;;
44197;SDS011;30157;55.512;37.764;2023-05-07T04:49:50;6.25;;;3.08;;
44197;SDS011;30157;55.512;37.764;2023-05-07T04:52:16;3.40;;;2.50;;
44197;SDS011;30157;55.512;37.764;2023-05-07T04:54:42;4.88;;;2.75;;
44197;SDS011;30157;55.512;37.764;2023-05-07T04:57:08;3.95;;;2.50;;
44197;SDS011;30157;55.512;37.764;2023-05-07T04:59:35;3.85;;;2.38;;
44197;SDS011;30157;55.512;37.764;2023-05-07T05:02:00;3.33;;;2.42;;
44197;SDS011;30157;55.512;37.764;2023-05-07T05:04:27;5.00;;;2.42;;
44197;SDS011;30157;55.512;37.764;2023-05-07T05:06:53;3.47;;;2.33;;
44197;SDS011;30157;55.512;37.764;2023-05-07T05:09:18;3.00;;;1.90;;
44197;SDS011;30157;55.512;37.764;2023-05-07T05:11:45;3.88;;;2.08;;
44197;SDS011;30157;55.512;37.764;2023-05-07T05:14:11;2.90;;;1.90;;
44197;SDS011;30157;55.512;37.764;2023-05-07T05:16:37;4.38;;;3.20;;
44197;SDS011;30157;55.512;37.764;2023-05-07T05:19:02;4.47;;;2.30;;
44197;SDS011;30157;55.512;37.764;2023-05-07T05:21:31;3.53;;;2.03;;
44197;SDS011;30157;55.512;37.764;2023-05-07T05:24:03;2.95;;;1.73;;
44197;SDS011;30157;55.512;37.764;2023-05-07T05:26:29;3.53;;;1.80;;
44197;SDS011;30157;55.512;37.764;2023-05-07T05:28:56;3.45;;;2.20;;
44197;SDS011;30157;55.512;37.764;2023-05-07T05:31:23;2.50;;;1.80;;
44197;SDS011;30157;55.512;37.764;2023-05-07T05:33:50;2.83;;;1.88;;
44197;SDS011;30157;55.512;37.764;2023-05-07T05:36:16;3.50;;;2.13;;
44197;SDS011;30157;55.512;37.764;2023-05-07T05:38:43;4.32;;;1.88;;
44197;SDS011;30157;55.512;37.764;2023-05-07T05:41:10;4.18;;;1.60;;
44197;SDS011;30157;55.512;37.764;2023-05-07T05:43:37;2.42;;;1.85;;
44197;SDS011;30157;55.512;37.764;2023-05-07T05:46:02;4.25;;;2.00;;
44197;SDS011;30157;55.512;37.764;2023-05-07T05:48:29;3.83;;;1.92;;
44197;SDS011;30157;55.512;37.764;2023-05-07T05:50:57;3.60;;;1.90;;
44197;SDS011;30157;55.512;37.764;2023-05-07T05:53:23;4.57;;;1.98;;
44197;SDS011;30157;55.512;37.764;2023-05-07T05:55:49;2.42;;;2.00;;
44197;SDS011;30157;55.512;37.764;2023-05-07T05:58:15;3.67;;;1.77;;
44197;SDS011;30157;55.512;37.764;2023-05-07T06:00:48;2.45;;;1.67;;
44197;SDS011;30157;55.512;37.764;2023-05-07T06:03:14;3.65;;;1.55;;
44197;SDS011;30157;55.512;37.764;2023-05-07T06:05:41;4.03;;;2.40;;
44197;SDS011;30157;55.512;37.764;2023-05-07T06:08:07;4.93;;;2.70;;
44197;SDS011;30157;55.512;37.764;2023-05-07T06:10:35;3.95;;;1.90;;
44197;SDS011;30157;55.512;37.764;2023-05-07T06:13:04;4.00;;;1.88;;
44197;SDS011;30157;55.512;37.764;2023-05-07T06:15:31;3.42;;;1.95;;
44197;SDS011;30157;55.512;37.764;2023-05-07T06:18:02;3.95;;;1.60;;
44197;SDS011;30157;55.512;37.764;2023-05-07T06:20:28;3.53;;;1.70;;
44197;SDS011;30157;55.512;37.764;2023-05-07T06:22:55;3.70;;;1.50;;
44197;SDS011;30157;55.512;37.764;2023-05-07T06:25:21;3.95;;;1.90;;
44197;SDS011;30157;55.512;37.764;2023-05-07T06:27:47;2.80;;;1.55;;
44197;SDS011;30157;55.512;37.764;2023-05-07T06:30:13;4.55;;;1.88;;
44197;SDS011;30157;55.512;37.764;2023-05-07T06:32:40;4.78;;;1.98;;
44197;SDS011;30157;55.512;37.764;2023-05-07T06:35:06;1.92;;;1.63;;
44197;SDS011;30157;55.512;37.764;2023-05-07T06:37:35;3.22;;;1.98;;
44197;SDS011;30157;55.512;37.764;2023-05-07T06:40:05;2.95;;;1.85;;
44197;SDS011;30157;55.512;37.764;2023-05-07T06:42:35;4.95;;;2.22;;
44197;SDS011;30157;55.512;37.764;2023-05-07T06:45:19;5.18;;;2.67;;
44197;SDS011;30157;55.512;37.764;2023-05-07T06:47:45;2.95;;;2.00;;
44197;SDS011;30157;55.512;37.764;2023-05-07T06:50:11;4.32;;;2.10;;
44197;SDS011;30157;55.512;37.764;2023-05-07T06:52:38;7.13;;;2.40;;
44197;SDS011;30157;55.512;37.764;2023-05-07T06:55:05;3.78;;;2.00;;
44197;SDS011;30157;55.512;37.764;2023-05-07T06:57:31;4.53;;;1.88;;
44197;SDS011;30157;55.512;37.764;2023-05-07T07:00:00;3.22;;;1.95;;
44197;SDS011;30157;55.512;37.764;2023-05-07T07:02:26;5.78;;;2.35;;
44197;SDS011;30157;55.512;37.764;2023-05-07T07:04:52;3.38;;;2.20;;
44197;SDS011;30157;55.512;37.764;2023-05-07T07:07:19;4.55;;;3.33;;
44197;SDS011;30157;55.512;37.764;2023-05-07T07:09:46;3.33;;;1.95;;
44197;SDS011;30157;55.512;37.764;2023-05-07T07:12:15;5.38;;;2.10;;
44197;SDS011;30157;55.512;37.764;2023-05-07T07:14:42;3.45;;;1.95;;
44197;SDS011;30157;55.512;37.764;2023-05-07T07:17:08;4.93;;;2.30;;
44197;SDS011;30157;55.512;37.764;2023-05-07T07:19:35;3.45;;;1.90;;
44197;SDS011;30157;55.512;37.764;2023-05-07T07:22:02;3.65;;;1.98;;
44197;SDS011;30157;55.512;37.764;2023-05-07T07:24:29;2.97;;;1.70;;
44197;SDS011;30157;55.512;37.764;2023-05-07T07:26:58;3.53;;;2.05;;
44197;SDS011;30157;55.512;37.764;2023-05-07T07:29:26;1.92;;;1.60;;
44197;SDS011;30157;55.512;37.764;2023-05-07T07:31:53;4.68;;;1.90;;
44197;SDS011;30157;55.512;37.764;2023-05-07T07:34:19;2.25;;;1.48;;
44197;SDS011;30157;55.512;37.764;2023-05-07T07:36:45;7.88;;;3.10;;
44197;SDS011;30157;55.512;37.764;2023-05-07T07:39:13;3.80;;;1.88;;
44197;SDS011;30157;55.512;37.764;2023-05-07T07:41:40;7.45;;;1.85;;
44197;SDS011;30157;55.512;37.764;2023-05-07T07:44:06;9.50;;;2.10;;
44197;SDS011;30157;55.512;37.764;2023-05-07T07:46:35;6.68;;;2.13;;
44197;SDS011;30157;55.512;37.764;2023-05-07T07:49:02;5.40;;;1.75;;
44197;SDS011;30157;55.512;37.764;2023-05-07T07:51:28;3.90;;;1.60;;
44197;SDS011;30157;55.512;37.764;2023-05-07T07:53:55;2.15;;;1.73;;
44197;SDS011;30157;55.512;37.764;2023-05-07T07:56:23;2.75;;;1.90;;
44197;SDS011;30157;55.512;37.764;2023-05-07T07:58:49;2.80;;;1.63;;
44197;SDS011;30157;55.512;37.764;2023-05-07T08:01:15;3.92;;;1.55;;
44197;SDS011;30157;55.512;37.764;2023-05-07T08:03:42;3.92;;;1.70;;
44197;SDS011;30157;55.512;37.764;2023-05-07T08:06:08;4.30;;;1.80;;
44197;SDS011;30157;55.512;37.764;2023-05-07T08:08:35;4.53;;;1.73;;
44197;SDS011;30157;55.512;37.764;2023-05-07T08:11:01;3.30;;;1.50;;
44197;SDS011;30157;55.512;37.764;2023-05-07T08:13:32;3.10;;;1.73;;
44197;SDS011;30157;55.512;37.764;2023-05-07T08:15:58;5.47;;;2.20;;
44197;SDS011;30157;55.512;37.764;2023-05-07T08:18:25;2.70;;;2.13;;
44197;SDS011;30157;55.512;37.764;2023-05-07T08:20:56;3.25;;;1.95;;
44197;SDS011;30157;55.512;37.764;2023-05-07T08:23:26;4.38;;;1.60;;
44197;SDS011;30157;55.512;37.764;2023-05-07T08:25:52;5.10;;;1.98;;
44197;SDS011;30157;55.512;37.764;2023-05-07T08:28:22;3.75;;;1.80;;
44197;SDS011;30157;55.512;37.764;2023-05-07T08:30:50;4.10;;;1.70;;
44197;SDS011;30157;55.512;37.764;2023-05-07T08:33:16;3.28;;;1.45;;
44197;SDS011;30157;55.512;37.764;2023-05-07T08:35:48;3.38;;;1.70;;
44197;SDS011;30157;55.512;37.764;2023-05-07T08:38:14;3.10;;;1.65;;
44197;SDS011;30157;55.512;37.764;2023-05-07T08:40:44;3.50;;;2.00;;
44197;SDS011;30157;55.512;37.764;2023-05-07T08:43:19;3.13;;;2.20;;
44197;SDS011;30157;55.512;37.764;2023-05-07T08:45:47;6.95;;;2.08;;
44197;SDS011;30157;55.512;37.764;2023-05-07T08:48:19;1.80;;;1.60;;
44197;SDS011;30157;55.512;37.764;2023-05-07T08:50:54;3.08;;;1.52;;
44197;SDS011;30157;55.512;37.764;2023-05-07T08:53:23;4.32;;;1.58;;
44197;SDS011;30157;55.512;37.764;2023-05-07T08:55:49;2.75;;;2.00;;
44197;SDS011;30157;55.512;37.764;2023-05-07T08:58:21;5.38;;;1.60;;
44197;SDS011;30157;55.512;37.764;2023-05-07T09:00:48;9.10;;;2.20;;
44197;SDS011;30157;55.512;37.764;2023-05-07T09:03:17;3.33;;;1.75;;
44197;SDS011;30157;55.512;37.764;2023-05-07T09:05:46;4.13;;;1.95;;
44197;SDS011;30157;55.512;37.764;2023-05-07T09:08:15;2.97;;;1.70;;
44197;SDS011;30157;55.512;37.764;2023-05-07T09:10:44;4.22;;;2.00;;
44197;SDS011;30157;55.512;37.764;2023-05-07T09:13:10;2.35;;;1.48;;
44197;SDS011;30157;55.512;37.764;2023-05-07T09:15:39;2.40;;;1.58;;
44197;SDS011;30157;55.512;37.764;2023-05-07T09:18:09;2.80;;;1.55;;
44197;SDS011;30157;55.512;37.764;2023-05-07T09:20:39;2.40;;;1.50;;
44197;SDS011;30157;55.512;37.764;2023-05-07T09:23:08;1.90;;;1.40;;
44197;SDS011;30157;55.512;37.764;2023-05-07T09:25:35;3.45;;;1.50;;
44197;SDS011;30157;55.512;37.764;2023-05-07T09:28:08;14.95;;;3.13;;
44197;SDS011;30157;55.512;37.764;2023-05-07T09:30:38;5.22;;;2.40;;
44197;SDS011;30157;55.512;37.764;2023-05-07T09:33:07;7.43;;;2.92;;
44197;SDS011;30157;55.512;37.764;2023-05-07T09:35:37;5.05;;;2.17;;
44197;SDS011;30157;55.512;37.764;2023-05-07T09:38:10;3.08;;;1.60;;
44197;SDS011;30157;55.512;37.764;2023-05-07T09:40:46;3.97;;;1.80;;
44197;SDS011;30157;55.512;37.764;2023-05-07T09:43:14;4.13;;;2.15;;
44197;SDS011;30157;55.512;37.764;2023-05-07T09:45:52;3.35;;;1.90;;
44197;SDS011;30157;55.512;37.764;2023-05-07T09:48:20;2.40;;;1.70;;
44197;SDS011;30157;55.512;37.764;2023-05-07T09:50:51;3.03;;;2.00;;
44197;SDS011;30157;55.512;37.764;2023-05-07T09:53:23;3.78;;;2.20;;
44197;SDS011;30157;55.512;37.764;2023-05-07T09:55:51;5.13;;;1.90;;
44197;SDS011;30157;55.512;37.764;2023-05-07T09:58:20;2.78;;;1.50;;
44197;SDS011;30157;55.512;37.764;2023-05-07T10:00:49;2.35;;;1.83;;
44197;SDS011;30157;55.512;37.764;2023-05-07T10:03:16;4.95;;;1.60;;
44197;SDS011;30157;55.512;37.764;2023-05-07T10:05:53;4.38;;;1.58;;
44197;SDS011;30157;55.512;37.764;2023-05-07T10:08:20;3.72;;;1.70;;
44197;SDS011;30157;55.512;37.764;2023-05-07T10:10:49;3.55;;;1.38;;
44197;SDS011;30157;55.512;37.764;2023-05-07T10:13:23;3.22;;;1.50;;
44197;SDS011;30157;55.512;37.764;2023-05-07T10:15:53;3.47;;;1.60;;
44197;SDS011;30157;55.512;37.764;2023-05-07T10:18:21;4.00;;;1.60;;
44197;SDS011;30157;55.512;37.764;2023-05-07T10:20:50;5.97;;;1.70;;
44197;SDS011;30157;55.512;37.764;2023-05-07T10:23:23;3.92;;;1.60;;
44197;SDS011;30157;55.512;37.764;2023-05-07T10:25:53;1.45;;;1.13;;
44197;SDS011;30157;55.512;37.764;2023-05-07T10:28:22;1.83;;;1.25;;
44197;SDS011;30157;55.512;37.764;2023-05-07T10:33:48;2.40;;;1.40;;
44197;SDS011;30157;55.512;37.764;2023-05-07T10:36:20;4.75;;;2.10;;
44197;SDS011;30157;55.512;37.764;2023-05-07T10:38:50;7.53;;;1.80;;
44197;SDS011;30157;55.512;37.764;2023-05-07T10:41:17;5.30;;;1.70;;
44197;SDS011;30157;55.512;37.764;2023-05-07T10:43:45;4.18;;;1.88;;
44197;SDS011;30157;55.512;37.764;2023-05-07T10:46:19;4.60;;;1.88;;
44197;SDS011;30157;55.512;37.764;2023-05-07T10:51:37;4.15;;;1.40;;
44197;SDS011;30157;55.512;37.764;2023-05-07T10:56:45;2.40;;;1.40;;
44197;SDS011;30157;55.512;37.764;2023-05-07T11:04:22;4.53;;;1.60;;
44197;SDS011;30157;55.512;37.764;2023-05-07T11:07:18;1.75;;;1.50;;
44197;SDS011;30157;55.512;37.764;2023-05-07T11:10:03;1.60;;;1.27;;
44197;SDS011;30157;55.512;37.764;2023-05-07T11:15:40;2.35;;;1.50;;
44197;SDS011;30157;55.512;37.764;2023-05-07T11:18:51;2.80;;;1.52;;
44197;SDS011;30157;55.512;37.764;2023-05-07T11:21:38;5.63;;;1.85;;
44197;SDS011;30157;55.512;37.764;2023-05-07T11:24:15;3.17;;;1.90;;
44197;SDS011;30157;55.512;37.764;2023-05-07T11:26:49;6.78;;;1.85;;
44197;SDS011;30157;55.512;37.764;2023-05-07T11:29:17;2.58;;;1.63;;
44197;SDS011;30157;55.512;37.764;2023-05-07T11:31:50;7.93;;;2.70;;
44197;SDS011;30157;55.512;37.764;2023-05-07T11:34:25;3.00;;;1.98;;
44197;SDS011;30157;55.512;37.764;2023-05-07T11:36:54;7.50;;;2.63;;
44197;SDS011;30157;55.512;37.764;2023-05-07T11:39:33;3.30;;;1.77;;
44197;SDS011;30157;55.512;37.764;2023-05-07T11:42:04;2.28;;;1.58;;
44197;SDS011;30157;55.512;37.764;2023-05-07T11:44:42;3.42;;;1.70;;
44197;SDS011;30157;55.512;37.764;2023-05-07T11:47:11;5.65;;;2.08;;
44197;SDS011;30157;55.512;37.764;2023-05-07T11:49:43;2.65;;;1.60;;
44197;SDS011;30157;55.512;37.764;2023-05-07T11:52:09;3.58;;;1.33;;
44197;SDS011;30157;55.512;37.764;2023-05-07T11:54:35;4.72;;;1.67;;
44197;SDS011;30157;55.512;37.764;2023-05-07T11:57:02;4.55;;;1.40;;
44197;SDS011;30157;55.512;37.764;2023-05-07T11:59:28;3.20;;;1.48;;
44197;SDS011;30157;55.512;37.764;2023-05-07T12:01:57;3.88;;;1.88;;
44197;SDS011;30157;55.512;37.764;2023-05-07T12:04:24;3.42;;;2.03;;
44197;SDS011;30157;55.512;37.764;2023-05-07T12:06:54;5.20;;;2.38;;
44197;SDS011;30157;55.512;37.764;2023-05-07T12:09:23;5.30;;;2.00;;
44197;SDS011;30157;55.512;37.764;2023-05-07T12:11:48;6.00;;;1.98;;
44197;SDS011;30157;55.512;37.764;2023-05-07T12:14:16;3.75;;;1.95;;
44197;SDS011;30157;55.512;37.764;2023-05-07T12:16:42;7.22;;;2.05;;
44197;SDS011;30157;55.512;37.764;2023-05-07T12:19:10;3.80;;;1.70;;
44197;SDS011;30157;55.512;37.764;2023-05-07T12:21:40;2.85;;;1.92;;
44197;SDS011;30157;55.512;37.764;2023-05-07T12:24:06;3.92;;;1.70;;
44197;SDS011;30157;55.512;37.764;2023-05-07T12:26:37;2.88;;;1.48;;
44197;SDS011;30157;55.512;37.764;2023-05-07T12:29:03;7.35;;;2.78;;
44197;SDS011;30157;55.512;37.764;2023-05-07T12:31:29;3.63;;;1.80;;
44197;SDS011;30157;55.512;37.764;2023-05-07T12:33:55;6.50;;;2.40;;
44197;SDS011;30157;55.512;37.764;2023-05-07T12:36:21;4.75;;;2.33;;
44197;SDS011;30157;55.512;37.764;2023-05-07T12:38:51;5.53;;;2.70;;
44197;SDS011;30157;55.512;37.764;2023-05-07T12:41:17;6.15;;;2.60;;
44197;SDS011;30157;55.512;37.764;2023-05-07T12:43:44;3.58;;;2.22;;
44197;SDS011;30157;55.512;37.764;2023-05-07T12:46:11;4.63;;;2.10;;
44197;SDS011;30157;55.512;37.764;2023-05-07T12:48:43;6.40;;;3.00;;
44197;SDS011;30157;55.512;37.764;2023-05-07T12:51:10;5.25;;;3.28;;
44197;SDS011;30157;55.512;37.764;2023-05-07T12:53:41;4.72;;;2.47;;
44197;SDS011;30157;55.512;37.764;2023-05-07T12:56:08;5.93;;;2.10;;
44197;SDS011;30157;55.512;37.764;2023-05-07T12:58:34;2.55;;;1.77;;
44197;SDS011;30157;55.512;37.764;2023-05-07T13:01:05;4.00;;;1.95;;
44197;SDS011;30157;55.512;37.764;2023-05-07T13:03:36;6.45;;;2.97;;
44197;SDS011;30157;55.512;37.764;2023-05-07T13:06:04;3.83;;;1.90;;
44197;SDS011;30157;55.512;37.764;2023-05-07T13:08:33;4.00;;;2.00;;
44197;SDS011;30157;55.512;37.764;2023-05-07T13:11:03;2.72;;;1.80;;
44197;SDS011;30157;55.512;37.764;2023-05-07T13:13:34;2.95;;;1.63;;
44197;SDS011;30157;55.512;37.764;2023-05-07T13:16:01;2.70;;;1.80;;
44197;SDS011;30157;55.512;37.764;2023-05-07T13:18:31;2.88;;;1.95;;
44197;SDS011;30157;55.512;37.764;2023-05-07T13:21:01;4.88;;;2.13;;
44197;SDS011;30157;55.512;37.764;2023-05-07T13:23:29;2.92;;;2.10;;
44197;SDS011;30157;55.512;37.764;2023-05-07T13:25:58;4.82;;;2.15;;
44197;SDS011;30157;55.512;37.764;2023-05-07T13:28:24;3.83;;;1.90;;
44197;SDS011;30157;55.512;37.764;2023-05-07T13:30:51;3.00;;;1.85;;
44197;SDS011;30157;55.512;37.764;2023-05-07T13:33:17;2.80;;;1.80;;
44197;SDS011;30157;55.512;37.764;2023-05-07T13:35:46;2.60;;;1.70;;
44197;SDS011;30157;55.512;37.764;2023-05-07T13:38:12;2.40;;;1.73;;
44197;SDS011;30157;55.512;37.764;2023-05-07T13:40:37;2.80;;;1.70;;
44197;SDS011;30157;55.512;37.764;2023-05-07T13:43:05;4.32;;;1.60;;
44197;SDS011;30157;55.512;37.764;2023-05-07T13:45:31;4.88;;;2.88;;
44197;SDS011;30157;55.512;37.764;2023-05-07T13:47:57;3.67;;;2.05;;
44197;SDS011;30157;55.512;37.764;2023-05-07T13:50:23;3.38;;;1.70;;
44197;SDS011;30157;55.512;37.764;2023-05-07T13:52:55;2.65;;;1.42;;
44197;SDS011;30157;55.512;37.764;2023-05-07T13:55:21;6.13;;;2.67;;
44197;SDS011;30157;55.512;37.764;2023-05-07T13:57:57;4.78;;;2.78;;
44197;SDS011;30157;55.512;37.764;2023-05-07T14:00:27;4.40;;;3.10;;
44197;SDS011;30157;55.512;37.764;2023-05-07T14:02:57;5.75;;;2.28;;
44197;SDS011;30157;55.512;37.764;2023-05-07T14:05:23;7.00;;;2.22;;
44197;SDS011;30157;55.512;37.764;2023-05-07T14:07:52;8.05;;;1.90;;
44197;SDS011;30157;55.512;37.764;2023-05-07T14:10:18;4.07;;;2.58;;
44197;SDS011;30157;55.512;37.764;2023-05-07T14:12:46;4.13;;;2.63;;
44197;SDS011;30157;55.512;37.764;2023-05-07T14:15:14;9.32;;;3.78;;
44197;SDS011;30157;55.512;37.764;2023-05-07T14:17:42;4.45;;;2.85;;
44197;SDS011;30157;55.512;37.764;2023-05-07T14:20:09;4.80;;;2.70;;
44197;SDS011;30157;55.512;37.764;2023-05-07T14:22:36;8.00;;;3.38;;
44197;SDS011;30157;55.512;37.764;2023-05-07T14:25:05;12.73;;;6.50;;
44197;SDS011;30157;55.512;37.764;2023-05-07T14:27:33;6.97;;;4.20;;
44197;SDS011;30157;55.512;37.764;2023-05-07T14:30:00;5.45;;;3.10;;
44197;SDS011;30157;55.512;37.764;2023-05-07T14:32:26;5.35;;;3.55;;
44197;SDS011;30157;55.512;37.764;2023-05-07T14:34:52;17.45;;;10.90;;
44197;SDS011;30157;55.512;37.764;2023-05-07T14:37:18;12.25;;;8.38;;
44197;SDS011;30157;55.512;37.764;2023-05-07T14:39:45;9.90;;;5.25;;
44197;SDS011;30157;55.512;37.764;2023-05-07T14:42:11;6.07;;;2.80;;
44197;SDS011;30157;55.512;37.764;2023-05-07T14:44:38;4.10;;;2.00;;
44197;SDS011;30157;55.512;37.764;2023-05-07T14:47:07;4.20;;;2.38;;
44197;SDS011;30157;55.512;37.764;2023-05-07T14:49:35;5.30;;;2.60;;
44197;SDS011;30157;55.512;37.764;2023-05-07T14:52:01;7.38;;;3.90;;